METAR UND TAF INFORMATION
CYFB 160900Z 33004KT 10SM -RASN SCT008 OVC036 01/01 A2975 RMK SF3SC5 SLP078

 FLUGHAFENKARTE

 RUNWAY INFORMATION
Runway 16 Runway length 8605 ft Runway width 200 ft
Runway elevation 110 ft Runway displaced threshold 0 ft Runway heading 137
Runway 34 Runway length 8605 ft Runway width 200 ft
Runway elevation 71 ft Runway displaced threshold 0 ft Runway heading 317

 AIRPORT FREQUENCIES
Type APRON ADV Name Frequency 122.925 MHZ
Type FSS Name RDO Frequency 122.2 MHZ
Type INTL AIR Name Gander Rad Frequency 126.9 MHZ
Type MF Name Iqalluit R Frequency 122.2 MHZ
Type PAL Name Montreal C Frequency 134.55 MHZ
Type RCO Name Artic Radi Frequency 123.275 MHZ
Type VDF Name Frequency 122.2 MHZ

 AIRPORT NEAR NAVIGATION AIDS
Type DME Name Iqualuit Frequency 109900 KHZ
Type VOR Name Frobay Frequency 117400 KHZ
Type NDB Name Frobay Frequency 204 KHZ